Time;durP1;ratioP1;P1;durP2;ratioP2;P2;SDS_P1;SDS_P2;PMS_P1;PMS_P2;Temp;Humidity;BMP_temperature;BMP_pressure;BME280_temperature;BME280_humidity;BME280_pressure;Samples;Min_cycle;Max_cycle;Signal;HPM_P1;HPM_P2
2021/04/02 00:00:45;;;;;;;12.07;8.68;;;10.50;50.20;;;;;;6021052;23;20020;-83
2021/04/02 00:03:22;;;;;;;8.57;6.07;;;10.50;50.20;;;;;;6022962;23;20021;-84
2021/04/02 00:05:50;;;;;;;14.25;10.23;;;10.40;51.30;;;;;;5998373;23;20017;-84
2021/04/02 00:08:16;;;;;;;13.10;9.90;;;10.40;50.40;;;;;;6021370;23;20013;-84
2021/04/02 00:10:48;;;;;;;13.85;10.88;;;10.30;50.40;;;;;;6023923;23;20092;-84
2021/04/02 00:13:25;;;;;;;9.13;7.38;;;10.30;50.60;;;;;;6072442;23;20035;-84
2021/04/02 00:15:52;;;;;;;7.25;6.35;;;10.30;50.60;;;;;;6027840;23;20166;-83
2021/04/02 00:18:18;;;;;;;15.45;11.05;;;10.40;50.40;;;;;;6047514;23;20019;-84
2021/04/02 00:20:45;;;;;;;8.10;7.13;;;10.30;50.40;;;;;;6047626;23;20031;-84
2021/04/02 00:23:12;;;;;;;8.80;7.82;;;10.30;50.30;;;;;;6023948;23;20025;-84
2021/04/02 00:25:38;;;;;;;;;;;10.30;50.30;;;;;;6047575;23;20025;-83
2021/04/02 00:28:05;;;;;;;8.23;7.32;;;10.30;50.30;;;;;;6070577;23;19924;-84
2021/04/02 00:30:40;;;;;;;;;;;10.30;50.30;;;;;;6024261;23;20013;-83
2021/04/02 00:33:07;;;;;;;8.57;5.82;;;10.30;50.50;;;;;;6121802;23;19939;-84
2021/04/02 00:35:33;;;;;;;;;;;10.20;50.10;;;;;;6074095;23;20096;-84
2021/04/02 00:37:59;;;;;;;8.13;6.72;;;10.20;50.20;;;;;;6047202;23;19924;-84
2021/04/02 00:40:32;;;;;;;10.05;8.50;;;10.10;50.10;;;;;;6024151;23;20020;-84
2021/04/02 00:42:59;;;;;;;5.78;4.93;;;10.10;50.30;;;;;;6024001;23;20017;-84
2021/04/02 00:45:25;;;;;;;8.98;7.55;;;10.00;50.30;;;;;;6023211;23;20017;-85
2021/04/02 00:47:52;;;;;;;15.90;10.02;;;10.00;50.60;;;;;;6070426;23;20036;-83
2021/04/02 00:50:25;;;;;;;;;;;10.00;50.60;;;;;;6022280;23;20087;-83
2021/04/02 00:52:52;;;;;;;8.82;7.57;;;10.00;50.60;;;;;;6069137;23;19924;-83
2021/04/02 00:55:19;;;;;;;10.18;6.85;;;10.10;50.20;;;;;;6024630;23;20103;-83
2021/04/02 00:57:45;;;;;;;11.15;9.02;;;10.10;50.20;;;;;;6025075;23;20024;-85
2021/04/02 01:00:13;;;;;;;8.88;7.35;;;10.10;50.10;;;;;;6072413;23;20028;-83
2021/04/02 01:02:40;;;;;;;9.82;7.13;;;10.10;50.00;;;;;;6071668;23;20013;-84
2021/04/02 01:05:15;;;;;;;7.13;5.63;;;10.20;49.90;;;;;;5999807;23;20091;-84
2021/04/02 01:07:48;;;;;;;13.43;10.10;;;10.20;49.60;;;;;;6048159;23;20092;-85
2021/04/02 01:10:15;;;;;;;11.80;8.00;;;10.20;49.50;;;;;;6077712;23;20018;-84
2021/04/02 01:12:41;;;;;;;14.10;9.13;;;10.20;49.40;;;;;;6056384;23;20013;-83
2021/04/02 01:15:30;;;;;;;7.00;5.80;;;10.20;49.20;;;;;;6030621;23;20142;-83
2021/04/02 01:17:57;;;;;;;12.43;8.80;;;10.10;49.20;;;;;;6073565;23;20029;-86
2021/04/02 01:20:25;;;;;;;11.23;7.90;;;10.10;49.10;;;;;;6024878;23;20024;-84
2021/04/02 01:22:51;;;;;;;7.13;5.38;;;10.10;49.20;;;;;;6023031;23;20013;-84
2021/04/02 01:26:09;;;;;;;9.32;6.03;;;10.10;49.10;;;;;;6070048;23;20031;-84
2021/04/02 01:29:10;;;;;;;12.05;8.93;;;10.10;49.30;;;;;;6039829;23;20036;-82
2021/04/02 01:31:38;;;;;;;7.18;5.90;;;10.10;49.30;;;;;;6025782;23;20061;-85
2021/04/02 01:34:04;;;;;;;10.65;7.45;;;10.00;49.20;;;;;;6021659;23;20476;-84
2021/04/02 01:36:31;;;;;;;6.45;5.47;;;10.00;49.30;;;;;;5997962;23;20105;-84
2021/04/02 01:38:57;;;;;;;10.52;8.57;;;10.00;49.40;;;;;;6022562;23;20017;-85
2021/04/02 01:41:26;;;;;;;10.30;6.15;;;9.90;49.50;;;;;;6021740;23;20021;-86
2021/04/02 01:43:55;;;;;;;13.60;9.85;;;9.90;49.80;;;;;;6070156;23;20033;-84
2021/04/02 01:46:22;;;;;;;10.98;8.48;;;9.90;49.90;;;;;;6046720;23;20037;-85
2021/04/02 01:48:52;;;;;;;7.95;5.63;;;9.90;49.80;;;;;;6024704;23;20013;-82
2021/04/02 01:51:19;;;;;;;10.65;8.18;;;9.90;49.80;;;;;;6001272;23;20017;-83
2021/04/02 01:53:48;;;;;;;7.30;6.30;;;9.90;49.90;;;;;;6048306;23;20016;-85
2021/04/02 01:56:15;;;;;;;7.72;5.43;;;9.80;49.80;;;;;;6001429;23;20101;-85
2021/04/02 01:58:42;;;;;;;;;;;9.80;50.00;;;;;;6047503;23;20028;-84
2021/04/02 02:01:09;;;;;;;11.50;6.30;;;9.80;50.20;;;;;;6074153;23;19928;-84
2021/04/02 02:03:35;;;;;;;7.35;5.90;;;9.80;50.10;;;;;;6047130;23;20040;-84
2021/04/02 02:06:03;;;;;;;12.20;9.20;;;9.70;50.10;;;;;;6047023;23;20017;-86
2021/04/02 02:08:30;;;;;;;6.63;5.47;;;9.70;50.20;;;;;;6025430;23;20047;-85
2021/04/02 02:11:00;;;;;;;10.88;7.53;;;9.70;50.10;;;;;;6023713;23;20039;-85
2021/04/02 02:13:28;;;;;;;10.90;7.65;;;9.70;50.30;;;;;;6074797;23;20029;-86
2021/04/02 02:15:56;;;;;;;6.10;4.75;;;9.70;50.20;;;;;;6029000;23;20051;-85
2021/04/02 02:18:25;;;;;;;7.35;4.88;;;9.70;50.20;;;;;;6033099;23;20096;-87
2021/04/02 02:20:52;;;;;;;10.25;7.07;;;9.80;50.30;;;;;;6046761;23;20013;-89
2021/04/02 02:23:20;;;;;;;12.20;9.18;;;9.80;50.20;;;;;;6045637;23;20013;-86
2021/04/02 02:25:47;;;;;;;11.48;7.93;;;9.80;50.20;;;;;;6048704;23;20023;-88
2021/04/02 02:28:13;;;;;;;12.07;9.48;;;9.80;50.20;;;;;;6070071;23;20016;-88
2021/04/02 02:30:40;;;;;;;10.48;7.13;;;9.80;50.20;;;;;;6068833;23;20017;-87
2021/04/02 02:33:06;;;;;;;13.10;8.98;;;9.80;50.30;;;;;;6041475;23;20028;-90
2021/04/02 02:35:33;;;;;;;4.57;4.18;;;9.70;50.20;;;;;;6042967;23;20024;-89
2021/04/02 02:38:01;;;;;;;9.45;6.25;;;9.70;50.40;;;;;;6064010;23;20036;-88
2021/04/02 02:40:30;;;;;;;9.00;5.40;;;9.70;50.40;;;;;;6081984;23;20017;-85
2021/04/02 02:42:57;;;;;;;8.13;5.60;;;9.70;50.50;;;;;;6083148;23;20024;-88
2021/04/02 02:45:24;;;;;;;8.45;5.22;;;9.70;50.50;;;;;;6035714;23;20040;-88
2021/04/02 02:47:52;;;;;;;7.60;5.90;;;9.70;50.50;;;;;;6008619;23;20428;-89
2021/04/02 02:50:44;;;;;;;12.18;7.78;;;9.70;50.50;;;;;;6059576;23;20032;-89
2021/04/02 02:53:30;;;;;;;6.30;5.55;;;9.70;50.60;;;;;;6033795;23;20032;-89
2021/04/02 02:56:01;;;;;;;9.80;6.35;;;9.80;50.50;;;;;;6074999;23;20021;-88
2021/04/02 02:59:01;;;;;;;7.82;5.38;;;9.70;50.60;;;;;;6053918;23;20028;-89
2021/04/02 03:01:40;;;;;;;5.72;4.32;;;9.70;50.60;;;;;;6100560;23;20023;-89
2021/04/02 03:04:11;;;;;;;8.30;6.53;;;9.70;50.60;;;;;;6124734;23;20369;-88
2021/04/02 03:06:59;;;;;;;5.85;5.25;;;9.70;50.70;;;;;;6079252;23;20071;-90
2021/04/02 03:09:33;;;;;;;9.45;6.63;;;9.60;50.80;;;;;;6055087;23;20021;-89
2021/04/02 03:12:11;;;;;;;7.10;6.07;;;9.70;51.00;;;;;;6051799;23;20028;-86
2021/04/02 03:14:53;;;;;;;12.52;8.75;;;9.70;50.80;;;;;;6100284;23;20024;-88
2021/04/02 03:17:22;;;;;;;14.93;8.65;;;9.70;50.80;;;;;;6073861;23;20017;-89
2021/04/02 03:20:13;;;;;;;11.95;7.43;;;9.80;50.70;;;;;;6052298;23;20088;-89
2021/04/02 03:22:56;;;;;;;16.02;9.93;;;9.80;50.60;;;;;;6050029;23;20041;-90
2021/04/02 03:25:27;;;;;;;11.02;7.57;;;9.90;50.50;;;;;;6092517;23;20021;-90
2021/04/02 03:27:54;;;;;;;6.40;5.63;;;9.90;50.40;;;;;;6025364;23;20100;-89
2021/04/02 03:30:22;;;;;;;11.18;7.03;;;10.00;50.20;;;;;;6026296;23;20031;-91
2021/04/02 03:32:58;;;;;;;8.55;5.22;;;10.00;50.10;;;;;;6052033;23;20021;-89
2021/04/02 03:35:29;;;;;;;8.10;6.10;;;10.00;50.10;;;;;;6030583;23;20424;-87
2021/04/02 03:37:58;;;;;;;11.95;7.28;;;9.90;50.40;;;;;;6052746;23;20041;-89
2021/04/02 03:40:24;;;;;;;10.93;6.90;;;9.90;50.60;;;;;;6035509;23;20027;-89
2021/04/02 03:42:54;;;;;;;9.73;7.10;;;9.90;50.60;;;;;;6031158;23;20013;-91
2021/04/02 03:45:22;;;;;;;9.48;7.60;;;9.90;50.60;;;;;;6005925;23;20017;-89
2021/04/02 03:47:50;;;;;;;14.48;8.32;;;9.90;50.50;;;;;;6053298;23;20013;-91
2021/04/02 03:50:18;;;;;;;6.53;4.82;;;9.90;50.50;;;;;;6031679;23;20080;-94
2021/04/02 03:53:32;;;;;;;9.85;7.50;;;9.90;50.60;;;;;;6051302;23;20009;-91
2021/04/02 03:56:22;;;;;;;9.73;6.82;;;9.90;50.70;;;;;;6062771;23;20033;-91
2021/04/02 03:58:50;;;;;;;9.02;7.88;;;9.90;50.70;;;;;;6102827;23;20354;-92
2021/04/02 04:01:21;;;;;;;4.78;3.92;;;10.00;50.50;;;;;;6054291;23;20017;-91
2021/04/02 04:03:49;;;;;;;14.80;9.15;;;10.00;50.50;;;;;;6029320;23;20056;-89
2021/04/02 04:06:20;;;;;;;9.00;7.10;;;10.10;50.30;;;;;;6054452;23;20076;-93
2021/04/02 04:08:50;;;;;;;11.65;7.82;;;10.10;50.10;;;;;;6037417;23;20050;-87
2021/04/02 04:11:16;;;;;;;8.95;6.85;;;10.20;50.10;;;;;;6032894;23;20013;-88
2021/04/02 04:13:45;;;;;;;6.40;4.90;;;10.20;49.80;;;;;;6072299;23;20025;-90
2021/04/02 04:16:17;;;;;;;12.80;8.52;;;10.30;49.80;;;;;;6025423;23;20449;-87
2021/04/02 04:18:48;;;;;;;7.60;5.50;;;10.30;49.70;;;;;;6047622;23;20017;-90
2021/04/02 04:21:15;;;;;;;8.52;7.18;;;10.30;49.60;;;;;;6049615;23;20463;-89
2021/04/02 04:23:42;;;;;;;9.13;6.53;;;10.40;49.40;;;;;;6026222;23;20100;-90
2021/04/02 04:26:13;;;;;;;5.25;4.75;;;10.40;49.30;;;;;;6027345;23;20028;-88
2021/04/02 04:28:40;;;;;;;8.13;5.90;;;10.50;49.50;;;;;;6026396;23;20079;-90
2021/04/02 04:31:10;;;;;;;7.15;5.88;;;10.60;49.30;;;;;;6048845;23;20017;-90
2021/04/02 04:33:37;;;;;;;10.15;7.03;;;10.80;49.00;;;;;;6049439;23;20089;-86
2021/04/02 04:36:04;;;;;;;8.70;5.80;;;10.90;48.50;;;;;;6010042;23;20017;-89
2021/04/02 04:38:31;;;;;;;7.93;6.10;;;11.10;48.00;;;;;;6084604;23;20021;-87
2021/04/02 04:40:57;;;;;;;8.00;4.57;;;11.20;47.30;;;;;;6011181;23;20024;-88
2021/04/02 04:43:24;;;;;;;7.93;6.57;;;11.30;46.90;;;;;;6004426;23;20013;-88
2021/04/02 04:45:53;;;;;;;15.07;9.95;;;11.40;46.60;;;;;;6025007;23;20017;-88
2021/04/02 04:48:21;;;;;;;6.25;5.30;;;11.50;46.80;;;;;;6072520;23;20496;-89
2021/04/02 04:50:48;;;;;;;5.43;4.53;;;11.70;46.10;;;;;;6049258;23;20040;-90
2021/04/02 04:53:20;;;;;;;8.00;6.63;;;11.80;45.80;;;;;;6026248;23;20017;-88
2021/04/02 04:55:47;;;;;;;9.57;7.82;;;12.00;45.40;;;;;;6029711;23;20021;-88
2021/04/02 04:58:15;;;;;;;12.15;7.00;;;12.10;44.40;;;;;;6031093;23;20071;-88
2021/04/02 05:00:45;;;;;;;6.07;5.10;;;12.30;44.70;;;;;;6052273;23;20021;-89
2021/04/02 05:03:14;;;;;;;15.20;8.05;;;12.60;44.50;;;;;;6023996;23;20485;-88
2021/04/02 05:05:42;;;;;;;9.27;5.32;;;12.90;43.50;;;;;;6022427;23;20017;-87
2021/04/02 05:08:13;;;;;;;12.85;9.07;;;13.10;42.50;;;;;;6030320;23;20071;-86
2021/04/02 05:10:39;;;;;;;7.25;6.03;;;13.10;41.50;;;;;;6026606;23;20475;-90
2021/04/02 05:13:06;;;;;;;11.88;7.18;;;13.20;41.40;;;;;;6025260;23;20032;-89
2021/04/02 05:15:33;;;;;;;;;;;13.70;41.90;;;;;;6047817;23;20084;-87
2021/04/02 05:18:01;;;;;;;16.25;9.57;;;14.20;41.20;;;;;;6070988;23;19924;-86
2021/04/02 05:20:44;;;;;;;11.88;7.63;;;15.10;39.90;;;;;;6048955;23;20128;-91
2021/04/02 05:23:14;;;;;;;7.57;5.18;;;16.30;38.80;;;;;;6032416;23;20119;-90
2021/04/02 05:25:41;;;;;;;17.65;7.55;;;17.30;36.70;;;;;;6026588;23;20037;-91
2021/04/02 05:28:08;;;;;;;13.90;9.38;;;18.00;34.80;;;;;;6000901;23;20032;-89
2021/04/02 05:30:35;;;;;;;11.63;8.25;;;18.10;31.20;;;;;;6049921;23;20016;-91
2021/04/02 05:33:04;;;;;;;14.75;8.43;;;17.80;30.80;;;;;;6052878;23;20013;-91
2021/04/02 05:35:32;;;;;;;10.73;7.00;;;17.20;31.70;;;;;;6032118;23;20017;-90
2021/04/02 05:38:00;;;;;;;6.05;4.78;;;16.80;32.20;;;;;;6067287;23;20028;-91
2021/04/02 05:40:27;;;;;;;16.63;8.98;;;16.20;32.90;;;;;;6055358;23;20017;-92
2021/04/02 05:43:11;;;;;;;15.40;9.75;;;15.60;34.20;;;;;;6030710;23;20020;-89
2021/04/02 05:45:38;;;;;;;14.18;8.68;;;15.30;35.40;;;;;;6049125;23;20028;-90
2021/04/02 05:48:06;;;;;;;11.43;6.63;;;15.20;36.10;;;;;;6026526;23;20031;-87
2021/04/02 05:50:35;;;;;;;13.73;7.18;;;15.10;35.90;;;;;;6075748;23;20039;-91
2021/04/02 05:53:05;;;;;;;14.75;8.90;;;15.00;36.20;;;;;;6055090;23;20493;-92
2021/04/02 05:55:41;;;;;;;5.72;4.57;;;14.80;36.20;;;;;;6036495;23;20010;-95
2021/04/02 05:58:09;;;;;;;13.90;9.10;;;14.70;36.80;;;;;;6025805;23;20021;-90
2021/04/02 06:00:37;;;;;;;13.57;8.25;;;14.50;37.10;;;;;;6035545;23;20021;-92
2021/04/02 06:03:06;;;;;;;4.07;3.03;;;14.40;37.40;;;;;;6037313;23;20040;-91
2021/04/02 06:05:33;;;;;;;11.32;7.28;;;14.30;37.80;;;;;;6039021;23;20096;-91
2021/04/02 06:08:00;;;;;;;10.98;7.32;;;14.20;37.90;;;;;;6044324;23;20017;-89
2021/04/02 06:10:28;;;;;;;17.45;6.15;;;14.20;38.30;;;;;;6043667;23;20017;-92
2021/04/02 06:12:58;;;;;;;15.65;7.57;;;14.10;38.30;;;;;;6045206;23;20344;-90
2021/04/02 06:15:24;;;;;;;7.88;5.85;;;14.00;38.50;;;;;;6041079;23;20017;-90
2021/04/02 06:18:11;;;;;;;6.78;4.88;;;14.10;38.90;;;;;;6038824;23;20017;-89
2021/04/02 06:20:46;;;;;;;3.55;3.25;;;14.00;38.60;;;;;;6037455;23;20044;-89
2021/04/02 06:23:23;;;;;;;18.27;8.68;;;14.00;38.90;;;;;;6034522;23;20021;-87
2021/04/02 06:25:52;;;;;;;12.20;7.93;;;14.20;38.70;;;;;;6052657;23;20043;-87
2021/04/02 06:28:28;;;;;;;33.30;10.80;;;14.40;38.70;;;;;;6094155;23;20040;-85
2021/04/02 06:31:03;;;;;;;7.72;5.43;;;14.70;38.00;;;;;;6049383;23;20112;-87
2021/04/02 06:33:38;;;;;;;10.00;6.20;;;15.00;37.00;;;;;;6024672;23;20032;-86
2021/04/02 06:36:26;;;;;;;8.27;6.60;;;15.20;36.50;;;;;;6075856;23;20048;-89
2021/04/02 06:39:00;;;;;;;12.35;8.32;;;15.50;35.80;;;;;;6071790;23;20017;-87
2021/04/02 06:41:28;;;;;;;10.20;5.78;;;16.20;36.80;;;;;;6048113;23;20687;-87
2021/04/02 06:43:59;;;;;;;11.05;5.78;;;17.10;33.90;;;;;;6024024;23;20175;-86
2021/04/02 06:46:30;;;;;;;7.70;6.07;;;17.60;31.90;;;;;;6024610;23;20021;-86
2021/04/02 06:49:18;;;;;;;30.25;9.38;;;18.20;31.70;;;;;;6094559;23;20009;-88
2021/04/02 06:51:46;;;;;;;5.90;4.95;;;19.00;30.30;;;;;;6070927;23;20488;-87
2021/04/02 06:54:14;;;;;;;19.17;7.38;;;19.60;28.80;;;;;;6023098;23;20021;-86
2021/04/02 06:56:46;;;;;;;13.50;7.78;;;19.90;28.30;;;;;;6022464;23;20616;-84
2021/04/02 06:59:17;;;;;;;8.73;4.93;;;20.40;28.40;;;;;;6051008;23;20480;-86
2021/04/02 07:01:47;;;;;;;7.00;5.45;;;20.80;26.80;;;;;;6029739;23;20048;-84
2021/04/02 07:04:15;;;;;;;16.63;6.72;;;21.30;27.00;;;;;;6051624;23;20013;-85
2021/04/02 07:06:42;;;;;;;30.45;9.27;;;22.20;25.90;;;;;;6047977;23;20013;-86
2021/04/02 07:09:12;;;;;;;9.20;6.13;;;23.20;24.90;;;;;;6022628;23;20020;-86
2021/04/02 07:11:39;;;;;;;4.90;4.10;;;24.90;23.90;;;;;;6024738;23;20076;-88
2021/04/02 07:14:08;;;;;;;9.00;6.07;;;25.40;20.00;;;;;;6070140;23;20460;-86
2021/04/02 07:16:34;;;;;;;4.53;4.13;;;24.60;20.40;;;;;;6046560;23;20017;-87
2021/04/02 07:19:02;;;;;;;8.77;5.63;;;23.60;21.10;;;;;;6048337;23;20092;-87
2021/04/02 07:21:31;;;;;;;12.10;6.35;;;22.60;22.70;;;;;;6071108;23;20013;-88
2021/04/02 07:23:58;;;;;;;20.42;6.78;;;22.00;23.80;;;;;;6049950;23;20032;-86
2021/04/02 07:26:25;;;;;;;17.17;6.47;;;21.60;24.40;;;;;;6046234;23;20032;-87
2021/04/02 07:28:51;;;;;;;10.90;5.43;;;21.40;24.70;;;;;;6023219;23;20072;-86
2021/04/02 07:31:18;;;;;;;12.13;5.22;;;21.20;24.60;;;;;;6023393;23;20013;-87
2021/04/02 07:33:44;;;;;;;40.55;8.25;;;21.00;24.90;;;;;;6052203;23;20107;-86
2021/04/02 07:36:15;;;;;;;6.88;5.40;;;20.90;25.50;;;;;;6024858;23;20021;-88
2021/04/02 07:38:42;;;;;;;12.05;5.85;;;21.00;25.60;;;;;;6025916;23;20013;-87
2021/04/02 07:41:13;;;;;;;22.80;7.55;;;21.00;25.40;;;;;;6049356;23;20017;-86
2021/04/02 07:43:51;;;;;;;4.25;3.55;;;21.00;24.90;;;;;;6048292;23;20021;-87
2021/04/02 07:46:21;;;;;;;10.25;4.68;;;20.80;24.90;;;;;;6071678;23;20404;-85
2021/04/02 07:48:55;;;;;;;8.57;6.00;;;20.50;25.60;;;;;;6046529;23;20017;-86
2021/04/02 07:51:21;;;;;;;8.02;5.90;;;20.10;25.90;;;;;;6025669;23;20021;-86
2021/04/02 07:53:48;;;;;;;6.00;3.60;;;19.90;26.50;;;;;;6047367;23;20079;-86
2021/04/02 07:56:19;;;;;;;10.25;4.95;;;20.00;26.30;;;;;;6046737;23;20032;-89
2021/04/02 07:58:53;;;;;;;10.85;5.05;;;19.90;26.40;;;;;;6027940;23;20021;-90
2021/04/02 08:01:25;;;;;;;5.55;4.07;;;20.10;26.70;;;;;;6030562;23;20064;-89
2021/04/02 08:03:53;;;;;;;7.72;5.18;;;20.60;25.80;;;;;;6063414;23;20032;-91
2021/04/02 08:06:40;;;;;;;5.32;3.10;;;20.80;25.30;;;;;;6029084;23;20481;-89
2021/04/02 08:09:07;;;;;;;7.78;4.00;;;20.80;24.80;;;;;;6030350;23;20017;-88
2021/04/02 08:11:47;;;;;;;16.05;5.82;;;20.80;25.20;;;;;;6055776;23;20012;-88
2021/04/02 08:14:14;;;;;;;6.50;4.63;;;21.30;25.30;;;;;;6083828;23;20029;-88
2021/04/02 08:16:57;;;;;;;9.27;5.05;;;22.00;24.50;;;;;;6056907;23;20017;-86
2021/04/02 08:19:30;;;;;;;5.70;3.97;;;23.00;23.10;;;;;;6033830;23;20025;-85
2021/04/02 08:22:00;;;;;;;9.00;4.82;;;23.80;21.90;;;;;;6073442;23;20111;-87
2021/04/02 08:24:32;;;;;;;6.35;2.63;;;24.80;21.50;;;;;;6052053;23;20044;-88
2021/04/02 08:26:58;;;;;;;4.05;2.95;;;25.80;20.40;;;;;;6057530;23;20031;-91
2021/04/02 08:29:27;;;;;;;6.55;4.32;;;26.00;18.40;;;;;;6030025;23;20032;-91
2021/04/02 08:32:05;;;;;;;9.82;4.70;;;25.70;18.50;;;;;;6078604;23;20021;-87
2021/04/02 08:34:33;;;;;;;8.77;4.15;;;25.40;18.60;;;;;;6060869;23;20071;-91
2021/04/02 08:37:05;;;;;;;13.40;5.13;;;25.50;19.40;;;;;;6031047;23;20077;-89
2021/04/02 08:39:33;;;;;;;2.70;2.10;;;25.90;19.20;;;;;;6010221;23;20024;-91
2021/04/02 08:42:08;;;;;;;6.43;3.42;;;26.50;18.30;;;;;;6054222;23;20012;-92
2021/04/02 08:44:39;;;;;;;6.20;3.45;;;26.70;18.20;;;;;;6056395;23;20017;-93
2021/04/02 08:47:10;;;;;;;20.40;6.47;;;27.00;17.60;;;;;;6034889;23;20023;-92
2021/04/02 08:49:47;;;;;;;10.60;5.05;;;26.80;17.00;;;;;;6086720;23;20017;-94
2021/04/02 08:52:16;;;;;;;8.23;4.40;;;26.30;18.00;;;;;;6064412;23;20017;-94
2021/04/02 08:54:46;;;;;;;14.02;5.10;;;26.20;17.60;;;;;;6083181;23;20043;-92
2021/04/02 08:57:15;;;;;;;3.35;3.05;;;26.10;18.30;;;;;;6034160;23;20017;-91
2021/04/02 08:59:45;;;;;;;16.17;5.38;;;25.90;17.50;;;;;;6039127;23;20025;-92
2021/04/02 09:02:16;;;;;;;6.93;4.78;;;25.20;18.00;;;;;;6046734;23;20028;-90
2021/04/02 09:04:43;;;;;;;15.27;5.43;;;24.80;18.60;;;;;;6042520;23;20027;-89
2021/04/02 09:07:10;;;;;;;9.63;4.68;;;24.60;19.20;;;;;;6066738;23;20002;-92
2021/04/02 09:09:40;;;;;;;5.75;3.20;;;24.90;19.20;;;;;;6045997;23;20080;-93
2021/04/02 09:12:09;;;;;;;5.63;3.92;;;24.80;18.30;;;;;;6043943;23;20021;-89
2021/04/02 09:14:43;;;;;;;8.02;3.70;;;24.40;18.30;;;;;;6041174;23;20028;-89
2021/04/02 09:17:15;;;;;;;9.23;4.88;;;23.80;18.90;;;;;;6038194;23;20052;-89
2021/04/02 09:19:42;;;;;;;7.75;3.67;;;23.00;19.60;;;;;;6014706;23;20032;-93
2021/04/02 09:22:09;;;;;;;6.45;3.83;;;22.20;20.60;;;;;;6042652;23;20089;-90
2021/04/02 09:24:39;;;;;;;10.38;4.60;;;21.30;21.50;;;;;;6041549;23;20024;-87
2021/04/02 09:27:13;;;;;;;6.68;3.53;;;20.50;22.60;;;;;;6018549;23;20017;-89
2021/04/02 09:29:56;;;;;;;10.27;4.28;;;20.20;23.30;;;;;;6067490;23;20066;-87
2021/04/02 09:32:38;;;;;;;11.23;4.53;;;20.40;23.70;;;;;;6050801;23;20020;-88
2021/04/02 09:35:05;;;;;;;17.40;4.82;;;21.00;22.80;;;;;;6045381;23;20104;-91
2021/04/02 09:37:35;;;;;;;2.85;2.42;;;21.40;22.40;;;;;;6020728;23;20014;-91
2021/04/02 09:40:08;;;;;;;9.20;4.53;;;21.80;21.50;;;;;;6067407;23;20013;-88
2021/04/02 09:42:38;;;;;;;4.43;2.90;;;22.20;20.60;;;;;;6110227;23;20036;-90
2021/04/02 09:45:11;;;;;;;4.70;2.38;;;22.10;19.80;;;;;;6055984;23;20017;-90
2021/04/02 09:47:45;;;;;;;9.68;3.70;;;21.80;20.20;;;;;;6076006;23;20065;-87
2021/04/02 09:50:12;;;;;;;8.82;3.63;;;21.30;20.10;;;;;;6080508;23;20495;-89
2021/04/02 09:52:40;;;;;;;11.63;3.33;;;20.70;20.50;;;;;;6032584;23;20381;-91
2021/04/02 09:55:08;;;;;;;7.97;2.88;;;20.40;21.00;;;;;;6052313;23;20111;-89
2021/04/02 09:57:36;;;;;;;6.20;2.83;;;20.10;21.10;;;;;;6028948;23;20009;-89
2021/04/02 10:00:09;;;;;;;9.07;3.88;;;19.70;21.30;;;;;;6056553;23;20013;-88
2021/04/02 10:02:36;;;;;;;4.60;3.05;;;19.50;21.80;;;;;;6003384;23;20086;-91
2021/04/02 10:05:04;;;;;;;5.47;1.83;;;19.40;22.00;;;;;;6049845;23;20155;-88
2021/04/02 10:07:31;;;;;;;6.25;2.33;;;19.10;22.20;;;;;;6027717;23;20017;-88
2021/04/02 10:09:58;;;;;;;;;;;18.70;22.50;;;;;;6031035;23;20422;-86
2021/04/02 10:12:26;;;;;;;4.50;2.42;;;18.60;23.00;;;;;;6023618;23;19924;-86
2021/04/02 10:14:52;;;;;;;8.48;3.08;;;18.50;22.90;;;;;;6022725;23;20033;-88
2021/04/02 10:17:25;;;;;;;;;;;18.40;23.00;;;;;;6069440;23;20025;-89
2021/04/02 10:19:54;;;;;;;5.30;2.67;;;18.30;23.00;;;;;;6074576;23;20007;-88
2021/04/02 10:22:25;;;;;;;13.93;3.30;;;18.20;23.30;;;;;;6056024;23;20028;-88
2021/04/02 10:24:52;;;;;;;13.50;4.00;;;18.00;23.60;;;;;;6034909;23;20017;-89
2021/04/02 10:27:19;;;;;;;5.53;2.78;;;18.00;23.90;;;;;;6034713;23;20071;-89
2021/04/02 10:29:46;;;;;;;5.55;2.33;;;18.10;23.90;;;;;;6035898;23;20446;-89
2021/04/02 10:32:15;;;;;;;;;;;18.10;23.70;;;;;;6035847;23;20048;-91
2021/04/02 10:34:46;;;;;;;11.98;3.97;;;18.00;24.70;;;;;;6056205;23;19932;-88
2021/04/02 10:37:15;;;;;;;;;;;17.80;24.40;;;;;;6052244;23;20035;-88
2021/04/02 10:39:43;;;;;;;9.52;3.03;;;17.70;24.40;;;;;;6051643;23;20011;-89
2021/04/02 10:42:12;;;;;;;13.95;4.53;;;17.50;24.70;;;;;;6025986;23;20373;-89
2021/04/02 10:44:40;;;;;;;1.80;1.70;;;17.30;25.00;;;;;;6075181;23;20496;-88
2021/04/02 10:47:07;;;;;;;9.23;3.55;;;17.30;25.40;;;;;;6026368;23;20082;-89
2021/04/02 10:49:33;;;;;;;5.57;3.50;;;17.00;25.30;;;;;;6077596;23;20013;-90
2021/04/02 10:52:00;;;;;;;9.25;3.45;;;16.90;25.60;;;;;;6051647;23;20009;-88
2021/04/02 10:54:27;;;;;;;15.70;4.78;;;16.70;25.90;;;;;;6026015;23;20051;-90
2021/04/02 10:56:53;;;;;;;7.40;3.20;;;16.60;26.40;;;;;;6025175;23;20107;-89
2021/04/02 10:59:20;;;;;;;7.30;2.83;;;16.60;26.30;;;;;;6030636;23;20370;-87
2021/04/02 11:01:46;;;;;;;17.42;3.10;;;16.50;26.30;;;;;;6026733;23;20032;-89
2021/04/02 11:04:13;;;;;;;11.40;3.45;;;16.40;26.10;;;;;;6024406;23;20099;-88
2021/04/02 11:06:39;;;;;;;7.38;2.38;;;16.20;26.30;;;;;;6024660;23;20052;-88
2021/04/02 11:09:08;;;;;;;3.33;1.77;;;16.10;26.60;;;;;;6032700;23;20020;-90
2021/04/02 11:11:35;;;;;;;9.48;2.83;;;16.00;26.70;;;;;;6012666;23;20504;-88
2021/04/02 11:14:01;;;;;;;8.30;3.40;;;15.90;27.00;;;;;;6059416;23;20018;-89
2021/04/02 11:16:28;;;;;;;14.80;3.60;;;15.80;27.30;;;;;;6035215;23;20020;-90
2021/04/02 11:18:54;;;;;;;12.18;3.05;;;15.70;27.10;;;;;;6033927;23;20017;-88
2021/04/02 11:21:21;;;;;;;17.35;3.03;;;15.50;27.10;;;;;;6012577;23;20100;-87
2021/04/02 11:23:47;;;;;;;19.88;3.22;;;15.40;27.50;;;;;;6027967;23;20496;-88
2021/04/02 11:26:14;;;;;;;32.55;5.22;;;15.30;27.70;;;;;;6032388;23;20013;-88
2021/04/02 11:28:40;;;;;;;27.92;4.95;;;15.30;27.90;;;;;;6029017;23;20099;-88
2021/04/02 11:31:07;;;;;;;13.77;4.35;;;15.40;28.10;;;;;;6049806;23;20009;-87
2021/04/02 11:33:33;;;;;;;19.35;3.42;;;15.40;27.80;;;;;;6025878;23;20021;-87
2021/04/02 11:36:00;;;;;;;14.45;2.67;;;15.50;27.90;;;;;;6032729;23;20018;-86
2021/04/02 11:38:26;;;;;;;37.60;5.00;;;15.50;27.80;;;;;;6033496;23;20013;-90
2021/04/02 11:40:54;;;;;;;;;;;15.40;27.80;;;;;;6033687;23;20020;-89
2021/04/02 11:43:20;;;;;;;8.63;2.35;;;15.30;27.70;;;;;;6050028;23;19947;-91
2021/04/02 11:45:47;;;;;;;17.17;4.32;;;15.10;27.90;;;;;;6024249;23;20369;-90
2021/04/02 11:48:14;;;;;;;14.93;2.97;;;15.00;28.30;;;;;;6048331;23;20043;-87
2021/04/02 11:50:40;;;;;;;16.63;3.20;;;15.00;28.40;;;;;;6023852;23;20024;-87
2021/04/02 11:53:07;;;;;;;28.23;6.40;;;14.90;28.40;;;;;;6082902;23;20099;-86
2021/04/02 11:55:33;;;;;;;15.20;3.28;;;14.90;28.50;;;;;;6036396;23;20028;-87
2021/04/02 11:57:59;;;;;;;27.27;4.50;;;14.90;28.60;;;;;;6005947;23;20466;-87
2021/04/02 12:00:27;;;;;;;13.20;2.45;;;15.00;28.50;;;;;;6000426;23;20017;-88
2021/04/02 12:02:55;;;;;;;17.52;2.78;;;15.10;28.30;;;;;;6047208;23;20500;-89
2021/04/02 12:05:24;;;;;;;6.57;2.08;;;15.20;28.10;;;;;;6026530;23;20431;-90
2021/04/02 12:07:52;;;;;;;16.95;3.28;;;15.20;27.90;;;;;;6026422;23;20017;-88
2021/04/02 12:10:18;;;;;;;26.88;4.70;;;15.10;27.80;;;;;;6023305;23;20029;-86
2021/04/02 12:12:45;;;;;;;40.97;6.20;;;15.00;28.00;;;;;;6055004;23;20021;-89
2021/04/02 12:15:12;;;;;;;13.90;2.75;;;15.00;28.20;;;;;;6049455;23;20385;-89
2021/04/02 12:17:38;;;;;;;;;;;14.90;27.90;;;;;;6025398;23;20013;-89
2021/04/02 12:20:06;;;;;;;;;;;14.90;27.90;;;;;;6047831;23;20296;-88
2021/04/02 12:22:36;;;;;;;10.38;3.40;;;14.90;28.10;;;;;;6073472;23;19924;-88
2021/04/02 12:25:08;;;;;;;16.45;3.88;;;14.80;28.10;;;;;;6102978;23;20017;-88
2021/04/02 12:27:35;;;;;;;36.67;4.38;;;14.70;28.10;;;;;;6034192;23;20024;-87
2021/04/02 12:30:01;;;;;;;40.15;4.68;;;14.70;28.50;;;;;;6004180;23;20072;-88
2021/04/02 12:32:28;;;;;;;20.30;3.80;;;14.60;28.50;;;;;;6071920;23;20406;-88
2021/04/02 12:34:54;;;;;;;41.03;4.75;;;14.70;28.70;;;;;;6048300;23;20047;-89
2021/04/02 12:37:21;;;;;;;12.07;3.70;;;14.70;28.60;;;;;;6029457;23;20044;-88
2021/04/02 12:39:47;;;;;;;16.95;3.13;;;14.70;28.40;;;;;;6027957;23;20322;-91
2021/04/02 12:42:14;;;;;;;18.25;2.60;;;14.60;28.50;;;;;;6024138;23;20017;-87
2021/04/02 12:44:40;;;;;;;35.55;4.75;;;14.50;28.50;;;;;;6025362;23;20028;-89
2021/04/02 12:47:07;;;;;;;42.40;4.88;;;14.40;28.50;;;;;;6025025;23;20085;-87
2021/04/02 12:49:34;;;;;;;25.52;4.78;;;14.30;28.70;;;;;;6024986;23;20017;-87
2021/04/02 12:52:01;;;;;;;25.50;4.28;;;14.30;28.50;;;;;;6049389;23;20444;-87
2021/04/02 12:54:27;;;;;;;43.95;4.93;;;14.20;28.40;;;;;;6058873;23;20021;-87
2021/04/02 12:56:54;;;;;;;15.13;3.00;;;14.20;28.20;;;;;;6058578;23;20095;-91
2021/04/02 12:59:23;;;;;;;46.38;4.55;;;14.20;28.10;;;;;;6053219;23;20025;-91
2021/04/02 13:01:52;;;;;;;14.88;3.78;;;14.10;27.90;;;;;;6053900;23;20021;-91